sensor_id;sensor_type;location;lat;lon;timestamp;P1;durP1;ratioP1;P2;durP2;ratioP2
22634;SDS011;11484;50.858;4.384;2022-12-18T00:03:50;54.78;;;27.98;;
22634;SDS011;11484;50.858;4.384;2022-12-18T00:06:16;57.08;;;28.85;;
22634;SDS011;11484;50.858;4.384;2022-12-18T00:08:42;56.28;;;27.48;;
22634;SDS011;11484;50.858;4.384;2022-12-18T00:11:14;52.92;;;26.73;;
22634;SDS011;11484;50.858;4.384;2022-12-18T00:13:41;57.05;;;27.35;;
22634;SDS011;11484;50.858;4.384;2022-12-18T00:16:09;54.88;;;26.88;;
22634;SDS011;11484;50.858;4.384;2022-12-18T00:18:39;47.42;;;26.25;;
22634;SDS011;11484;50.858;4.384;2022-12-18T00:21:06;49.80;;;26.02;;
22634;SDS011;11484;50.858;4.384;2022-12-18T00:23:33;49.80;;;26.48;;
22634;SDS011;11484;50.858;4.384;2022-12-18T00:26:00;48.30;;;26.40;;
22634;SDS011;11484;50.858;4.384;2022-12-18T00:28:27;45.90;;;24.98;;
22634;SDS011;11484;50.858;4.384;2022-12-18T00:31:00;52.60;;;26.50;;
22634;SDS011;11484;50.858;4.384;2022-12-18T00:33:27;50.80;;;25.50;;
22634;SDS011;11484;50.858;4.384;2022-12-18T00:35:53;49.55;;;27.42;;
22634;SDS011;11484;50.858;4.384;2022-12-18T00:38:18;48.55;;;26.10;;
22634;SDS011;11484;50.858;4.384;2022-12-18T00:40:44;50.53;;;25.08;;
22634;SDS011;11484;50.858;4.384;2022-12-18T00:43:10;47.50;;;25.52;;
22634;SDS011;11484;50.858;4.384;2022-12-18T00:45:35;45.15;;;24.27;;
22634;SDS011;11484;50.858;4.384;2022-12-18T00:48:01;48.80;;;23.08;;
22634;SDS011;11484;50.858;4.384;2022-12-18T00:50:27;36.47;;;21.05;;
22634;SDS011;11484;50.858;4.384;2022-12-18T00:52:53;41.45;;;22.90;;
22634;SDS011;11484;50.858;4.384;2022-12-18T00:55:18;39.13;;;21.05;;
22634;SDS011;11484;50.858;4.384;2022-12-18T00:57:44;29.90;;;16.65;;
22634;SDS011;11484;50.858;4.384;2022-12-18T01:00:12;26.45;;;14.65;;
22634;SDS011;11484;50.858;4.384;2022-12-18T01:02:40;37.47;;;19.98;;
22634;SDS011;11484;50.858;4.384;2022-12-18T01:05:06;32.28;;;18.40;;
22634;SDS011;11484;50.858;4.384;2022-12-18T01:07:33;34.33;;;18.42;;
22634;SDS011;11484;50.858;4.384;2022-12-18T01:09:58;34.50;;;18.48;;
22634;SDS011;11484;50.858;4.384;2022-12-18T01:12:24;32.28;;;18.63;;
22634;SDS011;11484;50.858;4.384;2022-12-18T01:14:50;36.83;;;19.13;;
22634;SDS011;11484;50.858;4.384;2022-12-18T01:17:16;27.35;;;15.25;;
22634;SDS011;11484;50.858;4.384;2022-12-18T01:19:41;31.58;;;16.25;;
22634;SDS011;11484;50.858;4.384;2022-12-18T01:22:07;23.60;;;13.73;;
22634;SDS011;11484;50.858;4.384;2022-12-18T01:24:33;21.63;;;12.57;;
22634;SDS011;11484;50.858;4.384;2022-12-18T01:26:58;21.00;;;12.20;;
22634;SDS011;11484;50.858;4.384;2022-12-18T01:29:24;23.13;;;12.00;;
22634;SDS011;11484;50.858;4.384;2022-12-18T01:31:50;17.83;;;10.23;;
22634;SDS011;11484;50.858;4.384;2022-12-18T01:34:16;19.48;;;10.70;;
22634;SDS011;11484;50.858;4.384;2022-12-18T01:36:42;17.83;;;10.68;;
22634;SDS011;11484;50.858;4.384;2022-12-18T01:39:10;19.55;;;11.63;;
22634;SDS011;11484;50.858;4.384;2022-12-18T01:41:37;23.10;;;12.77;;
22634;SDS011;11484;50.858;4.384;2022-12-18T01:48:09;23.60;;;12.23;;
22634;SDS011;11484;50.858;4.384;2022-12-18T01:50:15;20.15;;;12.10;;
22634;SDS011;11484;50.858;4.384;2022-12-18T01:52:48;23.08;;;13.15;;
22634;SDS011;11484;50.858;4.384;2022-12-18T01:55:40;22.60;;;12.48;;
22634;SDS011;11484;50.858;4.384;2022-12-18T01:58:12;27.88;;;14.40;;
22634;SDS011;11484;50.858;4.384;2022-12-18T02:00:39;26.58;;;14.30;;
22634;SDS011;11484;50.858;4.384;2022-12-18T02:03:05;24.90;;;14.20;;
22634;SDS011;11484;50.858;4.384;2022-12-18T02:05:36;26.77;;;14.00;;
22634;SDS011;11484;50.858;4.384;2022-12-18T02:10:57;30.75;;;15.32;;
22634;SDS011;11484;50.858;4.384;2022-12-18T02:13:40;26.17;;;14.50;;
22634;SDS011;11484;50.858;4.384;2022-12-18T02:18:57;26.85;;;15.43;;
22634;SDS011;11484;50.858;4.384;2022-12-18T02:27:13;30.48;;;14.63;;
22634;SDS011;11484;50.858;4.384;2022-12-18T02:29:41;26.10;;;15.07;;
22634;SDS011;11484;50.858;4.384;2022-12-18T02:32:16;25.70;;;13.48;;
22634;SDS011;11484;50.858;4.384;2022-12-18T02:34:47;26.60;;;13.75;;
22634;SDS011;11484;50.858;4.384;2022-12-18T02:37:16;25.80;;;14.57;;
22634;SDS011;11484;50.858;4.384;2022-12-18T02:39:44;26.25;;;13.85;;
22634;SDS011;11484;50.858;4.384;2022-12-18T02:42:13;25.30;;;14.38;;
22634;SDS011;11484;50.858;4.384;2022-12-18T02:44:46;29.25;;;14.48;;
22634;SDS011;11484;50.858;4.384;2022-12-18T02:47:15;25.83;;;14.10;;
22634;SDS011;11484;50.858;4.384;2022-12-18T02:49:47;26.70;;;14.32;;
22634;SDS011;11484;50.858;4.384;2022-12-18T03:00:58;21.13;;;11.73;;
22634;SDS011;11484;50.858;4.384;2022-12-18T03:06:30;23.45;;;12.13;;
22634;SDS011;11484;50.858;4.384;2022-12-18T03:09:06;21.67;;;12.15;;
22634;SDS011;11484;50.858;4.384;2022-12-18T03:11:37;19.73;;;10.80;;
22634;SDS011;11484;50.858;4.384;2022-12-18T03:14:23;22.42;;;12.05;;
22634;SDS011;11484;50.858;4.384;2022-12-18T03:16:54;22.33;;;12.35;;
22634;SDS011;11484;50.858;4.384;2022-12-18T03:19:24;22.13;;;12.13;;
22634;SDS011;11484;50.858;4.384;2022-12-18T03:21:54;21.08;;;11.68;;
22634;SDS011;11484;50.858;4.384;2022-12-18T03:24:22;23.35;;;12.95;;
22634;SDS011;11484;50.858;4.384;2022-12-18T03:26:54;22.55;;;12.25;;
22634;SDS011;11484;50.858;4.384;2022-12-18T03:29:27;22.52;;;12.18;;
22634;SDS011;11484;50.858;4.384;2022-12-18T03:32:05;20.33;;;11.05;;
22634;SDS011;11484;50.858;4.384;2022-12-18T03:34:42;18.90;;;11.27;;
22634;SDS011;11484;50.858;4.384;2022-12-18T03:37:12;22.58;;;11.35;;
22634;SDS011;11484;50.858;4.384;2022-12-18T03:39:38;21.75;;;11.70;;
22634;SDS011;11484;50.858;4.384;2022-12-18T03:42:22;21.98;;;10.93;;
22634;SDS011;11484;50.858;4.384;2022-12-18T03:47:49;18.67;;;10.77;;
22634;SDS011;11484;50.858;4.384;2022-12-18T03:50:22;18.75;;;10.90;;
22634;SDS011;11484;50.858;4.384;2022-12-18T03:52:54;17.20;;;10.10;;
22634;SDS011;11484;50.858;4.384;2022-12-18T03:55:43;21.77;;;11.27;;
22634;SDS011;11484;50.858;4.384;2022-12-18T03:58:10;19.98;;;10.57;;
22634;SDS011;11484;50.858;4.384;2022-12-18T04:03:06;17.92;;;10.45;;
22634;SDS011;11484;50.858;4.384;2022-12-18T04:05:33;21.60;;;11.25;;
22634;SDS011;11484;50.858;4.384;2022-12-18T04:08:02;20.33;;;10.82;;
22634;SDS011;11484;50.858;4.384;2022-12-18T04:10:29;20.33;;;11.18;;
22634;SDS011;11484;50.858;4.384;2022-12-18T04:12:55;16.55;;;9.30;;
22634;SDS011;11484;50.858;4.384;2022-12-18T04:15:22;19.23;;;10.27;;
22634;SDS011;11484;50.858;4.384;2022-12-18T04:17:48;18.35;;;9.88;;
22634;SDS011;11484;50.858;4.384;2022-12-18T04:20:15;19.15;;;10.35;;
22634;SDS011;11484;50.858;4.384;2022-12-18T04:22:41;16.67;;;9.35;;
22634;SDS011;11484;50.858;4.384;2022-12-18T04:25:07;18.00;;;10.32;;
22634;SDS011;11484;50.858;4.384;2022-12-18T04:27:33;18.08;;;10.18;;
22634;SDS011;11484;50.858;4.384;2022-12-18T04:29:59;21.83;;;10.90;;
22634;SDS011;11484;50.858;4.384;2022-12-18T04:32:25;16.90;;;9.48;;
22634;SDS011;11484;50.858;4.384;2022-12-18T04:34:50;20.00;;;10.63;;
22634;SDS011;11484;50.858;4.384;2022-12-18T04:37:16;20.15;;;10.32;;
22634;SDS011;11484;50.858;4.384;2022-12-18T04:39:42;17.52;;;9.73;;
22634;SDS011;11484;50.858;4.384;2022-12-18T04:42:08;18.95;;;10.20;;
22634;SDS011;11484;50.858;4.384;2022-12-18T04:44:34;17.83;;;9.15;;
22634;SDS011;11484;50.858;4.384;2022-12-18T04:47:01;17.02;;;9.85;;
22634;SDS011;11484;50.858;4.384;2022-12-18T04:49:26;17.50;;;9.60;;
22634;SDS011;11484;50.858;4.384;2022-12-18T04:51:52;17.25;;;10.18;;
22634;SDS011;11484;50.858;4.384;2022-12-18T04:54:18;17.52;;;10.35;;
22634;SDS011;11484;50.858;4.384;2022-12-18T04:56:43;15.95;;;9.77;;
22634;SDS011;11484;50.858;4.384;2022-12-18T04:59:09;21.95;;;9.32;;
22634;SDS011;11484;50.858;4.384;2022-12-18T05:01:35;18.65;;;10.10;;
22634;SDS011;11484;50.858;4.384;2022-12-18T05:04:01;16.23;;;9.68;;
22634;SDS011;11484;50.858;4.384;2022-12-18T05:06:27;18.23;;;9.98;;
22634;SDS011;11484;50.858;4.384;2022-12-18T05:08:53;17.30;;;9.68;;
22634;SDS011;11484;50.858;4.384;2022-12-18T05:11:19;17.00;;;9.57;;
22634;SDS011;11484;50.858;4.384;2022-12-18T05:13:44;16.75;;;9.48;;
22634;SDS011;11484;50.858;4.384;2022-12-18T05:16:11;15.00;;;9.50;;
22634;SDS011;11484;50.858;4.384;2022-12-18T05:18:38;18.10;;;9.13;;
22634;SDS011;11484;50.858;4.384;2022-12-18T05:21:04;18.48;;;9.73;;
22634;SDS011;11484;50.858;4.384;2022-12-18T05:23:30;18.85;;;9.90;;
22634;SDS011;11484;50.858;4.384;2022-12-18T05:26:00;19.02;;;9.88;;
22634;SDS011;11484;50.858;4.384;2022-12-18T05:28:28;18.75;;;8.98;;
22634;SDS011;11484;50.858;4.384;2022-12-18T05:30:56;19.80;;;9.85;;
22634;SDS011;11484;50.858;4.384;2022-12-18T05:33:24;15.95;;;9.65;;
22634;SDS011;11484;50.858;4.384;2022-12-18T05:35:52;16.33;;;9.52;;
22634;SDS011;11484;50.858;4.384;2022-12-18T05:38:19;17.65;;;9.20;;
22634;SDS011;11484;50.858;4.384;2022-12-18T05:40:47;13.85;;;8.88;;
22634;SDS011;11484;50.858;4.384;2022-12-18T05:43:13;16.58;;;9.55;;
22634;SDS011;11484;50.858;4.384;2022-12-18T05:45:39;15.85;;;8.90;;
22634;SDS011;11484;50.858;4.384;2022-12-18T05:48:06;18.70;;;9.35;;
22634;SDS011;11484;50.858;4.384;2022-12-18T05:50:35;14.07;;;8.85;;
22634;SDS011;11484;50.858;4.384;2022-12-18T05:53:02;13.07;;;8.20;;
22634;SDS011;11484;50.858;4.384;2022-12-18T05:55:29;17.35;;;9.57;;
22634;SDS011;11484;50.858;4.384;2022-12-18T05:57:57;20.05;;;8.82;;
22634;SDS011;11484;50.858;4.384;2022-12-18T06:00:25;17.88;;;8.93;;
22634;SDS011;11484;50.858;4.384;2022-12-18T06:02:51;16.83;;;9.13;;
22634;SDS011;11484;50.858;4.384;2022-12-18T06:05:17;15.50;;;8.85;;
22634;SDS011;11484;50.858;4.384;2022-12-18T06:07:43;15.38;;;9.15;;
22634;SDS011;11484;50.858;4.384;2022-12-18T06:10:08;15.25;;;9.75;;
22634;SDS011;11484;50.858;4.384;2022-12-18T06:12:34;17.45;;;9.25;;
22634;SDS011;11484;50.858;4.384;2022-12-18T06:15:00;14.90;;;8.48;;
22634;SDS011;11484;50.858;4.384;2022-12-18T06:17:29;13.90;;;8.20;;
22634;SDS011;11484;50.858;4.384;2022-12-18T06:19:55;15.20;;;8.52;;
22634;SDS011;11484;50.858;4.384;2022-12-18T06:22:21;16.27;;;8.65;;
22634;SDS011;11484;50.858;4.384;2022-12-18T06:24:47;14.07;;;8.10;;
22634;SDS011;11484;50.858;4.384;2022-12-18T06:27:13;17.00;;;8.50;;
22634;SDS011;11484;50.858;4.384;2022-12-18T06:29:39;15.10;;;8.10;;
22634;SDS011;11484;50.858;4.384;2022-12-18T06:32:04;16.55;;;8.35;;
22634;SDS011;11484;50.858;4.384;2022-12-18T06:34:30;17.00;;;8.90;;
22634;SDS011;11484;50.858;4.384;2022-12-18T06:36:56;17.15;;;9.13;;
22634;SDS011;11484;50.858;4.384;2022-12-18T06:39:21;15.95;;;8.40;;
22634;SDS011;11484;50.858;4.384;2022-12-18T06:41:47;17.33;;;7.88;;
22634;SDS011;11484;50.858;4.384;2022-12-18T06:44:13;15.10;;;7.95;;
22634;SDS011;11484;50.858;4.384;2022-12-18T06:46:38;14.75;;;8.07;;
22634;SDS011;11484;50.858;4.384;2022-12-18T06:49:04;13.73;;;8.23;;
22634;SDS011;11484;50.858;4.384;2022-12-18T06:51:30;15.88;;;8.50;;
22634;SDS011;11484;50.858;4.384;2022-12-18T06:53:55;16.02;;;7.88;;
22634;SDS011;11484;50.858;4.384;2022-12-18T06:56:21;15.52;;;8.30;;
22634;SDS011;11484;50.858;4.384;2022-12-18T06:58:47;18.63;;;8.65;;
22634;SDS011;11484;50.858;4.384;2022-12-18T07:01:13;18.25;;;8.30;;
22634;SDS011;11484;50.858;4.384;2022-12-18T07:03:39;18.33;;;8.48;;
22634;SDS011;11484;50.858;4.384;2022-12-18T07:06:06;15.68;;;8.35;;
22634;SDS011;11484;50.858;4.384;2022-12-18T07:08:37;13.93;;;8.25;;
22634;SDS011;11484;50.858;4.384;2022-12-18T07:11:03;14.73;;;8.48;;
22634;SDS011;11484;50.858;4.384;2022-12-18T07:13:30;13.90;;;7.72;;
22634;SDS011;11484;50.858;4.384;2022-12-18T07:16:02;14.35;;;8.40;;
22634;SDS011;11484;50.858;4.384;2022-12-18T07:18:29;16.45;;;8.05;;
22634;SDS011;11484;50.858;4.384;2022-12-18T07:20:54;15.18;;;7.65;;
22634;SDS011;11484;50.858;4.384;2022-12-18T07:23:20;15.95;;;7.53;;
22634;SDS011;11484;50.858;4.384;2022-12-18T07:25:46;15.25;;;8.38;;
22634;SDS011;11484;50.858;4.384;2022-12-18T07:28:11;11.38;;;7.82;;
22634;SDS011;11484;50.858;4.384;2022-12-18T07:30:37;14.90;;;8.43;;
22634;SDS011;11484;50.858;4.384;2022-12-18T07:33:03;15.85;;;8.55;;
22634;SDS011;11484;50.858;4.384;2022-12-18T07:35:29;14.48;;;8.02;;
22634;SDS011;11484;50.858;4.384;2022-12-18T07:37:55;13.68;;;7.88;;
22634;SDS011;11484;50.858;4.384;2022-12-18T07:40:20;13.13;;;7.78;;
22634;SDS011;11484;50.858;4.384;2022-12-18T07:42:46;15.05;;;7.45;;
22634;SDS011;11484;50.858;4.384;2022-12-18T07:45:12;16.38;;;8.77;;
22634;SDS011;11484;50.858;4.384;2022-12-18T07:47:38;12.73;;;8.25;;
22634;SDS011;11484;50.858;4.384;2022-12-18T07:50:06;12.23;;;7.90;;
22634;SDS011;11484;50.858;4.384;2022-12-18T07:52:32;13.98;;;8.45;;
22634;SDS011;11484;50.858;4.384;2022-12-18T07:54:58;17.25;;;6.88;;
22634;SDS011;11484;50.858;4.384;2022-12-18T07:57:23;9.73;;;6.00;;
22634;SDS011;11484;50.858;4.384;2022-12-18T07:59:49;13.15;;;6.80;;
22634;SDS011;11484;50.858;4.384;2022-12-18T08:02:15;12.18;;;6.45;;
22634;SDS011;11484;50.858;4.384;2022-12-18T08:04:40;10.68;;;6.40;;
22634;SDS011;11484;50.858;4.384;2022-12-18T08:07:06;12.98;;;6.63;;
22634;SDS011;11484;50.858;4.384;2022-12-18T08:09:32;10.65;;;6.18;;
22634;SDS011;11484;50.858;4.384;2022-12-18T08:11:57;14.60;;;6.93;;
22634;SDS011;11484;50.858;4.384;2022-12-18T08:14:23;9.77;;;5.70;;
22634;SDS011;11484;50.858;4.384;2022-12-18T08:16:49;10.52;;;6.05;;
22634;SDS011;11484;50.858;4.384;2022-12-18T08:19:15;11.02;;;6.32;;
22634;SDS011;11484;50.858;4.384;2022-12-18T08:21:40;14.50;;;7.20;;
22634;SDS011;11484;50.858;4.384;2022-12-18T08:24:08;12.43;;;6.75;;
22634;SDS011;11484;50.858;4.384;2022-12-18T08:26:34;12.48;;;6.88;;
22634;SDS011;11484;50.858;4.384;2022-12-18T08:29:00;10.30;;;6.65;;
22634;SDS011;11484;50.858;4.384;2022-12-18T08:31:27;10.32;;;6.35;;
22634;SDS011;11484;50.858;4.384;2022-12-18T08:33:54;13.13;;;6.40;;
22634;SDS011;11484;50.858;4.384;2022-12-18T08:36:21;9.38;;;6.22;;
22634;SDS011;11484;50.858;4.384;2022-12-18T08:38:47;14.02;;;7.13;;
22634;SDS011;11484;50.858;4.384;2022-12-18T08:41:14;9.10;;;6.82;;
22634;SDS011;11484;50.858;4.384;2022-12-18T08:43:41;10.90;;;6.70;;
22634;SDS011;11484;50.858;4.384;2022-12-18T08:46:25;10.38;;;6.72;;
22634;SDS011;11484;50.858;4.384;2022-12-18T08:48:55;9.27;;;6.15;;
22634;SDS011;11484;50.858;4.384;2022-12-18T08:51:21;11.48;;;6.53;;
22634;SDS011;11484;50.858;4.384;2022-12-18T08:53:47;9.13;;;6.22;;
22634;SDS011;11484;50.858;4.384;2022-12-18T08:56:13;10.25;;;6.43;;
22634;SDS011;11484;50.858;4.384;2022-12-18T08:58:40;11.13;;;6.78;;
22634;SDS011;11484;50.858;4.384;2022-12-18T09:01:07;11.68;;;6.75;;
22634;SDS011;11484;50.858;4.384;2022-12-18T09:03:34;13.27;;;7.40;;
22634;SDS011;11484;50.858;4.384;2022-12-18T09:06:00;10.30;;;6.20;;
22634;SDS011;11484;50.858;4.384;2022-12-18T09:08:26;11.57;;;7.57;;
22634;SDS011;11484;50.858;4.384;2022-12-18T09:10:53;12.15;;;7.32;;
22634;SDS011;11484;50.858;4.384;2022-12-18T09:13:19;13.63;;;7.88;;
22634;SDS011;11484;50.858;4.384;2022-12-18T09:15:46;11.07;;;7.20;;
22634;SDS011;11484;50.858;4.384;2022-12-18T09:18:14;13.60;;;7.75;;
22634;SDS011;11484;50.858;4.384;2022-12-18T09:20:41;13.25;;;7.80;;
22634;SDS011;11484;50.858;4.384;2022-12-18T09:23:07;15.23;;;9.27;;
22634;SDS011;11484;50.858;4.384;2022-12-18T09:25:34;15.00;;;7.90;;
22634;SDS011;11484;50.858;4.384;2022-12-18T09:28:04;13.50;;;7.80;;
22634;SDS011;11484;50.858;4.384;2022-12-18T09:30:32;13.32;;;8.48;;
22634;SDS011;11484;50.858;4.384;2022-12-18T09:33:00;12.55;;;7.57;;
22634;SDS011;11484;50.858;4.384;2022-12-18T09:35:26;14.00;;;8.18;;
22634;SDS011;11484;50.858;4.384;2022-12-18T09:37:52;14.90;;;8.48;;
22634;SDS011;11484;50.858;4.384;2022-12-18T09:40:19;13.02;;;7.65;;
22634;SDS011;11484;50.858;4.384;2022-12-18T09:42:50;13.27;;;8.07;;
22634;SDS011;11484;50.858;4.384;2022-12-18T09:45:20;14.27;;;8.93;;
22634;SDS011;11484;50.858;4.384;2022-12-18T09:47:47;14.73;;;8.23;;
22634;SDS011;11484;50.858;4.384;2022-12-18T09:52:59;16.73;;;8.80;;
22634;SDS011;11484;50.858;4.384;2022-12-18T09:55:34;15.50;;;9.32;;
22634;SDS011;11484;50.858;4.384;2022-12-18T09:58:13;18.67;;;11.10;;
22634;SDS011;11484;50.858;4.384;2022-12-18T10:00:52;15.13;;;9.13;;
22634;SDS011;11484;50.858;4.384;2022-12-18T10:03:18;15.35;;;9.35;;
22634;SDS011;11484;50.858;4.384;2022-12-18T10:11:52;17.70;;;11.00;;
22634;SDS011;11484;50.858;4.384;2022-12-18T10:14:31;15.15;;;10.05;;
22634;SDS011;11484;50.858;4.384;2022-12-18T10:17:30;16.05;;;9.40;;
22634;SDS011;11484;50.858;4.384;2022-12-18T10:20:22;18.02;;;10.55;;
22634;SDS011;11484;50.858;4.384;2022-12-18T10:23:02;17.63;;;10.13;;
22634;SDS011;11484;50.858;4.384;2022-12-18T10:28:29;17.63;;;9.88;;
22634;SDS011;11484;50.858;4.384;2022-12-18T10:30:56;16.70;;;10.00;;
22634;SDS011;11484;50.858;4.384;2022-12-18T10:33:23;17.05;;;10.32;;
22634;SDS011;11484;50.858;4.384;2022-12-18T10:35:53;19.60;;;10.60;;
22634;SDS011;11484;50.858;4.384;2022-12-18T10:38:24;19.08;;;10.38;;
22634;SDS011;11484;50.858;4.384;2022-12-18T10:43:24;16.08;;;9.60;;
22634;SDS011;11484;50.858;4.384;2022-12-18T10:45:58;18.83;;;10.20;;
22634;SDS011;11484;50.858;4.384;2022-12-18T10:48:26;16.25;;;9.88;;
22634;SDS011;11484;50.858;4.384;2022-12-18T10:50:53;18.95;;;11.20;;
22634;SDS011;11484;50.858;4.384;2022-12-18T10:53:22;16.88;;;9.95;;
22634;SDS011;11484;50.858;4.384;2022-12-18T10:55:53;16.15;;;10.10;;
22634;SDS011;11484;50.858;4.384;2022-12-18T10:58:22;21.95;;;11.32;;
22634;SDS011;11484;50.858;4.384;2022-12-18T11:03:39;19.63;;;11.52;;
22634;SDS011;11484;50.858;4.384;2022-12-18T11:06:13;19.10;;;11.15;;
22634;SDS011;11484;50.858;4.384;2022-12-18T11:08:41;14.98;;;10.45;;
22634;SDS011;11484;50.858;4.384;2022-12-18T11:11:16;19.75;;;11.10;;
22634;SDS011;11484;50.858;4.384;2022-12-18T11:14:05;20.42;;;11.00;;
22634;SDS011;11484;50.858;4.384;2022-12-18T11:16:43;19.17;;;12.75;;
22634;SDS011;11484;50.858;4.384;2022-12-18T11:19:24;17.75;;;11.45;;
22634;SDS011;11484;50.858;4.384;2022-12-18T11:21:58;27.88;;;13.48;;
22634;SDS011;11484;50.858;4.384;2022-12-18T11:24:30;19.35;;;11.90;;
22634;SDS011;11484;50.858;4.384;2022-12-18T11:27:02;23.38;;;11.60;;
22634;SDS011;11484;50.858;4.384;2022-12-18T11:34:48;16.13;;;11.10;;
22634;SDS011;11484;50.858;4.384;2022-12-18T11:37:20;18.85;;;11.23;;
22634;SDS011;11484;50.858;4.384;2022-12-18T11:39:49;25.73;;;12.70;;
22634;SDS011;11484;50.858;4.384;2022-12-18T11:45:25;18.80;;;12.30;;
22634;SDS011;11484;50.858;4.384;2022-12-18T11:48:04;23.02;;;11.30;;
22634;SDS011;11484;50.858;4.384;2022-12-18T11:50:46;28.65;;;13.02;;
22634;SDS011;11484;50.858;4.384;2022-12-18T11:53:21;20.67;;;10.73;;
22634;SDS011;11484;50.858;4.384;2022-12-18T11:58:24;18.55;;;10.55;;
22634;SDS011;11484;50.858;4.384;2022-12-18T12:12:38;17.73;;;10.27;;
22634;SDS011;11484;50.858;4.384;2022-12-18T12:20:54;18.95;;;11.65;;
22634;SDS011;11484;50.858;4.384;2022-12-18T12:23:38;22.50;;;11.00;;
22634;SDS011;11484;50.858;4.384;2022-12-18T12:26:08;18.73;;;11.32;;
22634;SDS011;11484;50.858;4.384;2022-12-18T12:37:26;22.02;;;11.73;;
22634;SDS011;11484;50.858;4.384;2022-12-18T12:40:23;24.20;;;11.95;;
22634;SDS011;11484;50.858;4.384;2022-12-18T12:43:19;19.48;;;11.63;;
22634;SDS011;11484;50.858;4.384;2022-12-18T12:45:53;26.55;;;11.73;;
22634;SDS011;11484;50.858;4.384;2022-12-18T12:48:35;22.55;;;12.13;;
22634;SDS011;11484;50.858;4.384;2022-12-18T12:51:21;24.52;;;12.75;;
22634;SDS011;11484;50.858;4.384;2022-12-18T12:53:53;24.67;;;14.07;;
22634;SDS011;11484;50.858;4.384;2022-12-18T12:56:21;27.80;;;14.52;;
22634;SDS011;11484;50.858;4.384;2022-12-18T12:58:58;28.42;;;13.45;;
22634;SDS011;11484;50.858;4.384;2022-12-18T13:01:41;23.80;;;12.43;;
22634;SDS011;11484;50.858;4.384;2022-12-18T13:10:10;25.58;;;14.52;;
22634;SDS011;11484;50.858;4.384;2022-12-18T13:16:05;34.72;;;18.33;;
22634;SDS011;11484;50.858;4.384;2022-12-18T13:18:32;27.70;;;15.48;;
22634;SDS011;11484;50.858;4.384;2022-12-18T13:30:59;26.20;;;14.52;;
22634;SDS011;11484;50.858;4.384;2022-12-18T13:33:36;25.00;;;13.80;;
22634;SDS011;11484;50.858;4.384;2022-12-18T13:36:09;24.65;;;13.68;;
22634;SDS011;11484;50.858;4.384;2022-12-18T13:41:36;24.75;;;14.15;;
22634;SDS011;11484;50.858;4.384;2022-12-18T13:44:10;26.05;;;14.57;;
22634;SDS011;11484;50.858;4.384;2022-12-18T13:46:52;25.27;;;13.98;;
22634;SDS011;11484;50.858;4.384;2022-12-18T13:51:50;30.08;;;14.52;;
22634;SDS011;11484;50.858;4.384;2022-12-18T13:56:46;29.67;;;15.15;;
22634;SDS011;11484;50.858;4.384;2022-12-18T14:02:00;32.47;;;17.13;;
22634;SDS011;11484;50.858;4.384;2022-12-18T14:04:33;28.75;;;16.58;;
22634;SDS011;11484;50.858;4.384;2022-12-18T14:07:04;31.85;;;16.55;;
22634;SDS011;11484;50.858;4.384;2022-12-18T14:09:42;27.88;;;15.30;;
22634;SDS011;11484;50.858;4.384;2022-12-18T14:12:45;34.53;;;15.95;;
22634;SDS011;11484;50.858;4.384;2022-12-18T14:15:34;26.67;;;15.60;;
22634;SDS011;11484;50.858;4.384;2022-12-18T14:20:43;28.90;;;15.55;;
22634;SDS011;11484;50.858;4.384;2022-12-18T14:28:49;32.78;;;15.77;;
22634;SDS011;11484;50.858;4.384;2022-12-18T14:31:19;33.40;;;16.75;;
22634;SDS011;11484;50.858;4.384;2022-12-18T14:33:46;30.88;;;16.85;;
22634;SDS011;11484;50.858;4.384;2022-12-18T14:36:14;31.90;;;15.18;;
22634;SDS011;11484;50.858;4.384;2022-12-18T14:38:42;27.95;;;15.73;;
22634;SDS011;11484;50.858;4.384;2022-12-18T14:41:13;27.10;;;16.37;;
22634;SDS011;11484;50.858;4.384;2022-12-18T14:43:42;32.47;;;15.68;;
22634;SDS011;11484;50.858;4.384;2022-12-18T14:46:29;32.42;;;15.55;;
22634;SDS011;11484;50.858;4.384;2022-12-18T14:51:34;30.00;;;15.80;;
22634;SDS011;11484;50.858;4.384;2022-12-18T14:54:02;30.70;;;15.88;;
22634;SDS011;11484;50.858;4.384;2022-12-18T14:56:35;32.03;;;16.38;;
22634;SDS011;11484;50.858;4.384;2022-12-18T15:04:32;31.60;;;15.93;;
22634;SDS011;11484;50.858;4.384;2022-12-18T15:07:05;34.25;;;16.65;;
22634;SDS011;11484;50.858;4.384;2022-12-18T15:09:44;32.72;;;17.17;;
22634;SDS011;11484;50.858;4.384;2022-12-18T15:20:54;31.70;;;17.77;;
22634;SDS011;11484;50.858;4.384;2022-12-18T15:23:37;30.40;;;16.83;;
22634;SDS011;11484;50.858;4.384;2022-12-18T15:26:04;29.35;;;16.17;;
22634;SDS011;11484;50.858;4.384;2022-12-18T15:36:29;33.28;;;17.20;;
22634;SDS011;11484;50.858;4.384;2022-12-18T15:38:55;32.83;;;15.93;;
22634;SDS011;11484;50.858;4.384;2022-12-18T15:41:22;33.25;;;17.23;;
22634;SDS011;11484;50.858;4.384;2022-12-18T15:43:49;32.35;;;16.42;;
22634;SDS011;11484;50.858;4.384;2022-12-18T15:48:52;33.42;;;16.42;;
22634;SDS011;11484;50.858;4.384;2022-12-18T15:51:27;32.35;;;17.80;;
22634;SDS011;11484;50.858;4.384;2022-12-18T15:53:59;28.45;;;15.98;;
22634;SDS011;11484;50.858;4.384;2022-12-18T15:56:28;27.20;;;15.15;;
22634;SDS011;11484;50.858;4.384;2022-12-18T15:59:17;30.40;;;15.02;;
22634;SDS011;11484;50.858;4.384;2022-12-18T16:01:45;28.95;;;15.75;;
22634;SDS011;11484;50.858;4.384;2022-12-18T16:04:13;28.23;;;14.88;;
22634;SDS011;11484;50.858;4.384;2022-12-18T16:06:41;28.65;;;15.50;;
22634;SDS011;11484;50.858;4.384;2022-12-18T16:09:07;29.70;;;15.85;;
22634;SDS011;11484;50.858;4.384;2022-12-18T16:11:34;29.70;;;15.93;;
22634;SDS011;11484;50.858;4.384;2022-12-18T16:16:51;30.40;;;14.77;;
22634;SDS011;11484;50.858;4.384;2022-12-18T16:19:19;30.63;;;15.57;;
22634;SDS011;11484;50.858;4.384;2022-12-18T16:21:46;31.42;;;15.80;;
22634;SDS011;11484;50.858;4.384;2022-12-18T16:24:18;30.00;;;15.02;;
22634;SDS011;11484;50.858;4.384;2022-12-18T16:26:47;26.90;;;14.68;;
22634;SDS011;11484;50.858;4.384;2022-12-18T16:29:13;27.95;;;14.98;;
22634;SDS011;11484;50.858;4.384;2022-12-18T16:31:40;26.27;;;14.13;;
22634;SDS011;11484;50.858;4.384;2022-12-18T16:34:20;24.85;;;13.50;;
22634;SDS011;11484;50.858;4.384;2022-12-18T16:37:04;27.48;;;13.35;;
22634;SDS011;11484;50.858;4.384;2022-12-18T16:39:34;29.38;;;14.15;;
22634;SDS011;11484;50.858;4.384;2022-12-18T16:42:05;29.02;;;13.98;;
22634;SDS011;11484;50.858;4.384;2022-12-18T16:44:37;30.67;;;14.45;;
22634;SDS011;11484;50.858;4.384;2022-12-18T16:47:03;27.10;;;14.30;;
22634;SDS011;11484;50.858;4.384;2022-12-18T16:49:29;27.50;;;14.45;;
22634;SDS011;11484;50.858;4.384;2022-12-18T16:51:54;30.40;;;14.20;;
22634;SDS011;11484;50.858;4.384;2022-12-18T16:54:20;28.25;;;14.23;;
22634;SDS011;11484;50.858;4.384;2022-12-18T16:56:46;27.27;;;14.63;;
22634;SDS011;11484;50.858;4.384;2022-12-18T16:59:18;26.75;;;13.90;;
22634;SDS011;11484;50.858;4.384;2022-12-18T17:01:45;29.83;;;14.33;;
22634;SDS011;11484;50.858;4.384;2022-12-18T17:04:11;29.05;;;15.43;;
22634;SDS011;11484;50.858;4.384;2022-12-18T17:06:42;28.70;;;14.30;;
22634;SDS011;11484;50.858;4.384;2022-12-18T17:09:20;25.92;;;13.98;;
22634;SDS011;11484;50.858;4.384;2022-12-18T17:11:50;21.57;;;12.80;;
22634;SDS011;11484;50.858;4.384;2022-12-18T17:14:17;28.95;;;14.07;;
22634;SDS011;11484;50.858;4.384;2022-12-18T17:16:50;28.48;;;14.18;;